sensor_id;sensor_type;location;lat;lon;timestamp;pressure;altitude;pressure_sealevel;temperature;humidity
25498;BME280;13406;53.380;7.226;2023-04-27T00:02:18;101842.25;;;3.92;100.00
25498;BME280;13406;53.380;7.226;2023-04-27T00:04:44;101982.09;;;4.75;100.00
25498;BME280;13406;53.380;7.226;2023-04-27T00:07:09;102001.00;;;5.13;100.00
25498;BME280;13406;53.380;7.226;2023-04-27T00:09:35;101991.84;;;5.06;100.00
25498;BME280;13406;53.380;7.226;2023-04-27T00:12:00;102033.09;;;5.21;100.00
25498;BME280;13406;53.380;7.226;2023-04-27T00:14:26;101844.91;;;3.92;100.00
25498;BME280;13406;53.380;7.226;2023-04-27T00:16:53;101990.94;;;4.86;100.00
25498;BME280;13406;53.380;7.226;2023-04-27T00:19:18;101904.66;;;4.59;100.00
25498;BME280;13406;53.380;7.226;2023-04-27T00:21:43;102066.25;;;5.57;100.00
25498;BME280;13406;53.380;7.226;2023-04-27T00:24:09;101906.78;;;4.65;100.00
25498;BME280;13406;53.380;7.226;2023-04-27T00:26:34;101934.97;;;4.78;100.00
25498;BME280;13406;53.380;7.226;2023-04-27T00:29:00;102011.22;;;5.17;100.00
25498;BME280;13406;53.380;7.226;2023-04-27T00:31:25;102009.84;;;5.23;100.00
25498;BME280;13406;53.380;7.226;2023-04-27T00:33:51;101938.47;;;4.78;100.00
25498;BME280;13406;53.380;7.226;2023-04-27T00:36:16;102039.31;;;5.41;100.00
25498;BME280;13406;53.380;7.226;2023-04-27T00:38:42;101921.44;;;4.60;100.00
25498;BME280;13406;53.380;7.226;2023-04-27T00:41:07;101945.72;;;4.76;100.00
25498;BME280;13406;53.380;7.226;2023-04-27T00:43:41;101950.56;;;4.92;100.00
25498;BME280;13406;53.380;7.226;2023-04-27T00:46:07;101961.59;;;4.97;100.00
25498;BME280;13406;53.380;7.226;2023-04-27T00:48:32;101902.84;;;4.60;100.00
25498;BME280;13406;53.380;7.226;2023-04-27T00:50:58;101996.63;;;5.12;100.00
25498;BME280;13406;53.380;7.226;2023-04-27T00:53:24;101886.38;;;4.35;100.00
25498;BME280;13406;53.380;7.226;2023-04-27T00:55:49;101950.00;;;4.67;100.00
25498;BME280;13406;53.380;7.226;2023-04-27T00:58:15;101867.19;;;4.01;100.00
25498;BME280;13406;53.380;7.226;2023-04-27T01:00:41;101916.34;;;4.47;100.00
25498;BME280;13406;53.380;7.226;2023-04-27T01:03:06;101943.91;;;4.46;100.00
25498;BME280;13406;53.380;7.226;2023-04-27T01:05:33;102026.03;;;5.10;100.00
25498;BME280;13406;53.380;7.226;2023-04-27T01:07:59;101879.59;;;4.21;100.00
25498;BME280;13406;53.380;7.226;2023-04-27T01:10:24;101941.84;;;4.28;100.00
25498;BME280;13406;53.380;7.226;2023-04-27T01:12:50;102031.63;;;5.07;100.00
25498;BME280;13406;53.380;7.226;2023-04-27T01:15:15;101937.44;;;4.69;100.00
25498;BME280;13406;53.380;7.226;2023-04-27T01:17:40;101898.91;;;4.23;100.00
25498;BME280;13406;53.380;7.226;2023-04-27T01:20:07;101977.88;;;4.73;100.00
25498;BME280;13406;53.380;7.226;2023-04-27T01:22:36;102037.53;;;5.11;100.00
25498;BME280;13406;53.380;7.226;2023-04-27T01:25:01;101938.19;;;4.50;100.00
25498;BME280;13406;53.380;7.226;2023-04-27T01:27:27;102021.94;;;5.06;100.00
25498;BME280;13406;53.380;7.226;2023-04-27T01:29:52;102041.19;;;5.19;100.00
25498;BME280;13406;53.380;7.226;2023-04-27T01:32:17;101992.06;;;4.83;100.00
25498;BME280;13406;53.380;7.226;2023-04-27T01:34:43;102010.19;;;4.99;100.00
25498;BME280;13406;53.380;7.226;2023-04-27T01:37:08;102042.53;;;5.04;100.00
25498;BME280;13406;53.380;7.226;2023-04-27T01:39:34;102045.59;;;5.30;100.00
25498;BME280;13406;53.380;7.226;2023-04-27T01:41:59;101915.91;;;4.72;100.00
25498;BME280;13406;53.380;7.226;2023-04-27T01:44:27;102029.69;;;5.50;100.00
25498;BME280;13406;53.380;7.226;2023-04-27T01:46:53;102017.16;;;5.31;100.00
25498;BME280;13406;53.380;7.226;2023-04-27T01:49:18;102030.47;;;5.40;100.00
25498;BME280;13406;53.380;7.226;2023-04-27T01:51:43;101923.00;;;4.32;100.00
25498;BME280;13406;53.380;7.226;2023-04-27T01:54:09;101975.78;;;4.76;100.00
25498;BME280;13406;53.380;7.226;2023-04-27T01:56:34;101923.31;;;4.38;100.00
25498;BME280;13406;53.380;7.226;2023-04-27T01:59:00;102019.13;;;4.98;100.00
25498;BME280;13406;53.380;7.226;2023-04-27T02:01:25;102029.09;;;5.06;100.00
25498;BME280;13406;53.380;7.226;2023-04-27T02:03:51;102022.72;;;4.87;100.00
25498;BME280;13406;53.380;7.226;2023-04-27T02:06:16;102020.13;;;4.76;100.00
25498;BME280;13406;53.380;7.226;2023-04-27T02:08:41;102032.25;;;4.90;100.00
25498;BME280;13406;53.380;7.226;2023-04-27T02:11:07;102016.69;;;4.85;100.00
25498;BME280;13406;53.380;7.226;2023-04-27T02:13:33;102033.81;;;4.92;100.00
25498;BME280;13406;53.380;7.226;2023-04-27T02:15:58;102035.28;;;4.85;100.00
25498;BME280;13406;53.380;7.226;2023-04-27T02:18:26;102031.75;;;4.75;100.00
25498;BME280;13406;53.380;7.226;2023-04-27T02:20:52;102035.44;;;4.84;100.00
25498;BME280;13406;53.380;7.226;2023-04-27T02:23:17;101985.63;;;4.55;100.00
25498;BME280;13406;53.380;7.226;2023-04-27T02:25:43;102033.19;;;4.58;100.00
25498;BME280;13406;53.380;7.226;2023-04-27T02:28:11;102046.47;;;4.58;100.00
25498;BME280;13406;53.380;7.226;2023-04-27T02:30:37;102039.81;;;4.64;100.00
25498;BME280;13406;53.380;7.226;2023-04-27T02:33:03;101968.38;;;4.49;100.00
25498;BME280;13406;53.380;7.226;2023-04-27T02:35:29;102043.69;;;4.81;100.00
25498;BME280;13406;53.380;7.226;2023-04-27T02:37:56;102043.81;;;4.58;100.00
25498;BME280;13406;53.380;7.226;2023-04-27T02:40:22;102031.25;;;4.60;100.00
25498;BME280;13406;53.380;7.226;2023-04-27T02:42:47;102007.25;;;4.50;100.00
25498;BME280;13406;53.380;7.226;2023-04-27T02:45:12;102029.28;;;4.62;100.00
25498;BME280;13406;53.380;7.226;2023-04-27T02:47:38;101972.09;;;4.37;100.00
25498;BME280;13406;53.380;7.226;2023-04-27T02:50:04;102020.53;;;4.71;100.00
25498;BME280;13406;53.380;7.226;2023-04-27T02:52:30;102011.97;;;4.68;100.00
25498;BME280;13406;53.380;7.226;2023-04-27T02:54:55;102041.34;;;4.66;100.00
25498;BME280;13406;53.380;7.226;2023-04-27T02:57:21;102041.38;;;4.97;100.00
25498;BME280;13406;53.380;7.226;2023-04-27T02:59:46;101974.31;;;4.32;100.00
25498;BME280;13406;53.380;7.226;2023-04-27T03:02:12;101971.81;;;4.61;100.00
25498;BME280;13406;53.380;7.226;2023-04-27T03:04:37;101950.78;;;4.27;100.00
25498;BME280;13406;53.380;7.226;2023-04-27T03:07:03;101958.63;;;4.08;100.00
25498;BME280;13406;53.380;7.226;2023-04-27T03:09:28;101994.69;;;4.52;100.00
25498;BME280;13406;53.380;7.226;2023-04-27T03:11:54;102010.06;;;4.80;100.00
25498;BME280;13406;53.380;7.226;2023-04-27T03:14:19;101995.88;;;4.39;100.00
25498;BME280;13406;53.380;7.226;2023-04-27T03:16:45;102037.38;;;4.82;100.00
25498;BME280;13406;53.380;7.226;2023-04-27T03:19:10;102037.94;;;4.85;100.00
25498;BME280;13406;53.380;7.226;2023-04-27T03:21:36;102030.47;;;4.48;100.00
25498;BME280;13406;53.380;7.226;2023-04-27T03:24:01;102000.34;;;4.38;100.00
25498;BME280;13406;53.380;7.226;2023-04-27T03:26:28;102043.50;;;4.72;100.00
25498;BME280;13406;53.380;7.226;2023-04-27T03:28:54;101975.78;;;4.25;100.00
25498;BME280;13406;53.380;7.226;2023-04-27T03:31:20;102039.72;;;4.54;100.00
25498;BME280;13406;53.380;7.226;2023-04-27T03:33:45;102035.22;;;4.66;100.00
25498;BME280;13406;53.380;7.226;2023-04-27T03:36:11;102045.97;;;4.43;100.00
25498;BME280;13406;53.380;7.226;2023-04-27T03:38:36;102030.41;;;4.39;100.00
25498;BME280;13406;53.380;7.226;2023-04-27T03:41:02;102047.69;;;4.33;100.00
25498;BME280;13406;53.380;7.226;2023-04-27T03:43:28;102045.97;;;4.43;100.00
25498;BME280;13406;53.380;7.226;2023-04-27T03:45:53;102038.56;;;4.47;100.00
25498;BME280;13406;53.380;7.226;2023-04-27T03:48:19;102045.97;;;4.22;100.00
25498;BME280;13406;53.380;7.226;2023-04-27T03:50:45;102045.09;;;4.22;100.00
25498;BME280;13406;53.380;7.226;2023-04-27T03:53:11;102019.81;;;3.74;100.00
25498;BME280;13406;53.380;7.226;2023-04-27T03:55:40;102042.97;;;4.04;100.00
25498;BME280;13406;53.380;7.226;2023-04-27T03:58:06;102029.13;;;3.69;100.00
25498;BME280;13406;53.380;7.226;2023-04-27T04:00:33;101985.31;;;3.74;100.00
25498;BME280;13406;53.380;7.226;2023-04-27T04:02:58;102029.63;;;3.95;100.00
25498;BME280;13406;53.380;7.226;2023-04-27T04:05:24;102000.63;;;3.82;100.00
25498;BME280;13406;53.380;7.226;2023-04-27T04:07:49;102043.72;;;4.06;100.00
25498;BME280;13406;53.380;7.226;2023-04-27T04:10:15;102004.75;;;3.96;100.00
25498;BME280;13406;53.380;7.226;2023-04-27T04:12:40;102018.75;;;3.98;100.00
25498;BME280;13406;53.380;7.226;2023-04-27T04:15:06;101975.47;;;3.65;100.00
25498;BME280;13406;53.380;7.226;2023-04-27T04:17:32;102047.63;;;4.23;100.00
25498;BME280;13406;53.380;7.226;2023-04-27T04:19:58;102048.94;;;3.97;100.00
25498;BME280;13406;53.380;7.226;2023-04-27T04:22:25;102038.09;;;3.89;100.00
25498;BME280;13406;53.380;7.226;2023-04-27T04:24:50;102058.66;;;4.40;100.00
25498;BME280;13406;53.380;7.226;2023-04-27T04:27:15;102048.25;;;4.16;100.00
25498;BME280;13406;53.380;7.226;2023-04-27T04:29:41;102010.13;;;3.84;100.00
25498;BME280;13406;53.380;7.226;2023-04-27T04:32:06;102044.19;;;4.33;100.00
25498;BME280;13406;53.380;7.226;2023-04-27T04:34:34;101988.78;;;4.07;100.00
25498;BME280;13406;53.380;7.226;2023-04-27T04:36:59;102024.19;;;3.96;100.00
25498;BME280;13406;53.380;7.226;2023-04-27T04:39:32;102016.75;;;3.35;100.00
25498;BME280;13406;53.380;7.226;2023-04-27T04:41:58;102030.97;;;3.89;100.00
25498;BME280;13406;53.380;7.226;2023-04-27T04:44:23;102007.03;;;3.79;100.00
25498;BME280;13406;53.380;7.226;2023-04-27T04:46:49;102048.47;;;3.92;100.00
25498;BME280;13406;53.380;7.226;2023-04-27T04:49:15;102043.53;;;4.19;100.00
25498;BME280;13406;53.380;7.226;2023-04-27T04:51:41;102032.16;;;4.28;100.00
25498;BME280;13406;53.380;7.226;2023-04-27T04:54:07;101996.38;;;4.12;100.00
25498;BME280;13406;53.380;7.226;2023-04-27T04:56:33;101927.84;;;3.52;100.00
25498;BME280;13406;53.380;7.226;2023-04-27T04:58:58;101898.84;;;3.39;100.00
25498;BME280;13406;53.380;7.226;2023-04-27T05:01:24;102028.78;;;4.26;100.00
25498;BME280;13406;53.380;7.226;2023-04-27T05:03:49;102028.72;;;4.38;100.00
25498;BME280;13406;53.380;7.226;2023-04-27T05:06:15;102028.19;;;4.44;100.00
25498;BME280;13406;53.380;7.226;2023-04-27T05:08:40;101986.84;;;4.30;100.00
25498;BME280;13406;53.380;7.226;2023-04-27T05:11:05;101988.31;;;4.34;100.00
25498;BME280;13406;53.380;7.226;2023-04-27T05:13:31;102021.31;;;4.62;100.00
25498;BME280;13406;53.380;7.226;2023-04-27T05:15:56;101979.47;;;4.34;100.00
25498;BME280;13406;53.380;7.226;2023-04-27T05:18:22;101942.94;;;4.26;100.00
25498;BME280;13406;53.380;7.226;2023-04-27T05:20:48;102034.91;;;4.90;100.00
25498;BME280;13406;53.380;7.226;2023-04-27T05:23:13;102039.78;;;4.85;100.00
25498;BME280;13406;53.380;7.226;2023-04-27T05:25:38;101950.31;;;4.43;100.00
25498;BME280;13406;53.380;7.226;2023-04-27T05:28:08;102059.38;;;5.14;100.00
25498;BME280;13406;53.380;7.226;2023-04-27T05:30:34;102012.75;;;5.10;100.00
25498;BME280;13406;53.380;7.226;2023-04-27T05:33:00;102046.59;;;5.08;100.00
25498;BME280;13406;53.380;7.226;2023-04-27T05:35:25;102029.34;;;5.03;100.00
25498;BME280;13406;53.380;7.226;2023-04-27T05:37:50;101942.13;;;4.56;100.00
25498;BME280;13406;53.380;7.226;2023-04-27T05:40:16;102008.81;;;5.14;100.00
25498;BME280;13406;53.380;7.226;2023-04-27T05:42:42;101828.00;;;4.14;100.00
25498;BME280;13406;53.380;7.226;2023-04-27T05:45:07;102055.75;;;5.65;100.00
25498;BME280;13406;53.380;7.226;2023-04-27T05:47:33;102053.41;;;5.82;100.00
25498;BME280;13406;53.380;7.226;2023-04-27T05:49:58;101990.28;;;5.43;100.00
25498;BME280;13406;53.380;7.226;2023-04-27T05:52:24;102037.72;;;5.79;100.00
25498;BME280;13406;53.380;7.226;2023-04-27T05:54:55;101935.94;;;5.27;100.00
25498;BME280;13406;53.380;7.226;2023-04-27T05:57:21;102083.19;;;6.06;100.00
25498;BME280;13406;53.380;7.226;2023-04-27T05:59:46;102071.13;;;6.22;100.00
25498;BME280;13406;53.380;7.226;2023-04-27T06:02:12;102083.63;;;6.11;100.00
25498;BME280;13406;53.380;7.226;2023-04-27T06:04:37;101990.75;;;5.68;100.00
25498;BME280;13406;53.380;7.226;2023-04-27T06:07:10;102072.00;;;6.22;100.00
25498;BME280;13406;53.380;7.226;2023-04-27T06:09:36;101931.19;;;5.40;100.00
25498;BME280;13406;53.380;7.226;2023-04-27T06:12:03;102081.66;;;6.43;100.00
25498;BME280;13406;53.380;7.226;2023-04-27T06:14:29;102041.69;;;6.23;100.00
25498;BME280;13406;53.380;7.226;2023-04-27T06:16:55;101998.50;;;6.00;100.00
25498;BME280;13406;53.380;7.226;2023-04-27T06:19:21;102030.75;;;6.17;100.00
25498;BME280;13406;53.380;7.226;2023-04-27T06:21:46;102009.72;;;6.23;100.00
25498;BME280;13406;53.380;7.226;2023-04-27T06:24:11;102057.91;;;6.59;100.00
25498;BME280;13406;53.380;7.226;2023-04-27T06:26:37;101966.25;;;6.13;100.00
25498;BME280;13406;53.380;7.226;2023-04-27T06:29:02;102013.34;;;6.32;100.00
25498;BME280;13406;53.380;7.226;2023-04-27T06:31:29;102110.91;;;7.01;100.00
25498;BME280;13406;53.380;7.226;2023-04-27T06:33:54;102067.25;;;6.92;100.00
25498;BME280;13406;53.380;7.226;2023-04-27T06:36:20;102069.53;;;6.68;100.00
25498;BME280;13406;53.380;7.226;2023-04-27T06:38:45;101995.25;;;6.16;100.00
25498;BME280;13406;53.380;7.226;2023-04-27T06:41:11;102064.78;;;6.71;100.00
25498;BME280;13406;53.380;7.226;2023-04-27T06:43:36;101959.38;;;5.91;100.00
25498;BME280;13406;53.380;7.226;2023-04-27T06:46:03;102073.75;;;6.80;100.00
25498;BME280;13406;53.380;7.226;2023-04-27T06:48:28;102094.66;;;6.85;100.00
25498;BME280;13406;53.380;7.226;2023-04-27T06:50:54;102061.16;;;6.53;100.00
25498;BME280;13406;53.380;7.226;2023-04-27T06:53:19;102092.97;;;6.74;100.00
25498;BME280;13406;53.380;7.226;2023-04-27T06:55:45;102043.38;;;6.15;100.00
25498;BME280;13406;53.380;7.226;2023-04-27T06:58:10;102116.56;;;6.59;100.00
25498;BME280;13406;53.380;7.226;2023-04-27T07:00:35;102117.84;;;6.74;100.00
25498;BME280;13406;53.380;7.226;2023-04-27T07:03:01;102062.84;;;6.25;100.00
25498;BME280;13406;53.380;7.226;2023-04-27T07:05:26;102095.91;;;6.71;100.00
25498;BME280;13406;53.380;7.226;2023-04-27T07:07:52;102102.81;;;6.73;100.00
25498;BME280;13406;53.380;7.226;2023-04-27T07:10:17;102043.19;;;6.65;100.00
25498;BME280;13406;53.380;7.226;2023-04-27T07:12:43;102100.19;;;7.11;100.00
25498;BME280;13406;53.380;7.226;2023-04-27T07:15:09;102038.84;;;6.44;100.00
25498;BME280;13406;53.380;7.226;2023-04-27T07:17:34;102101.47;;;6.97;100.00
25498;BME280;13406;53.380;7.226;2023-04-27T07:20:00;102130.38;;;7.21;100.00
25498;BME280;13406;53.380;7.226;2023-04-27T07:22:28;102035.91;;;6.57;100.00
25498;BME280;13406;53.380;7.226;2023-04-27T07:24:53;102122.09;;;7.14;100.00
25498;BME280;13406;53.380;7.226;2023-04-27T07:27:19;101983.00;;;6.52;100.00
25498;BME280;13406;53.380;7.226;2023-04-27T07:29:44;102124.75;;;7.24;100.00
25498;BME280;13406;53.380;7.226;2023-04-27T07:32:10;102113.78;;;7.17;100.00
25498;BME280;13406;53.380;7.226;2023-04-27T07:34:35;102119.41;;;7.14;100.00
25498;BME280;13406;53.380;7.226;2023-04-27T07:37:01;102108.03;;;7.22;100.00
25498;BME280;13406;53.380;7.226;2023-04-27T07:39:27;102119.03;;;7.46;100.00
25498;BME280;13406;53.380;7.226;2023-04-27T07:41:52;102140.00;;;7.41;100.00
25498;BME280;13406;53.380;7.226;2023-04-27T07:44:18;102127.38;;;7.34;100.00
25498;BME280;13406;53.380;7.226;2023-04-27T07:46:44;102028.50;;;6.88;100.00
25498;BME280;13406;53.380;7.226;2023-04-27T07:49:12;101982.25;;;6.70;100.00
25498;BME280;13406;53.380;7.226;2023-04-27T07:51:38;102130.22;;;7.87;100.00
25498;BME280;13406;53.380;7.226;2023-04-27T07:54:04;102137.09;;;7.62;100.00
25498;BME280;13406;53.380;7.226;2023-04-27T07:56:30;102066.13;;;7.32;100.00
25498;BME280;13406;53.380;7.226;2023-04-27T07:58:56;102142.66;;;7.69;100.00
25498;BME280;13406;53.380;7.226;2023-04-27T08:01:21;102146.81;;;7.54;100.00
25498;BME280;13406;53.380;7.226;2023-04-27T08:03:47;102051.75;;;7.15;100.00
25498;BME280;13406;53.380;7.226;2023-04-27T08:06:12;102089.03;;;7.62;100.00
25498;BME280;13406;53.380;7.226;2023-04-27T08:08:38;102051.63;;;7.07;100.00
25498;BME280;13406;53.380;7.226;2023-04-27T08:11:03;102002.47;;;7.10;100.00
25498;BME280;13406;53.380;7.226;2023-04-27T08:13:29;102077.84;;;7.49;100.00
25498;BME280;13406;53.380;7.226;2023-04-27T08:15:54;101959.81;;;7.00;100.00
25498;BME280;13406;53.380;7.226;2023-04-27T08:18:24;102008.44;;;7.21;100.00
25498;BME280;13406;53.380;7.226;2023-04-27T08:20:50;102130.94;;;8.07;100.00
25498;BME280;13406;53.380;7.226;2023-04-27T08:23:15;102009.44;;;7.20;100.00
25498;BME280;13406;53.380;7.226;2023-04-27T08:25:40;102127.69;;;7.86;100.00
25498;BME280;13406;53.380;7.226;2023-04-27T08:28:06;102010.00;;;7.24;100.00
25498;BME280;13406;53.380;7.226;2023-04-27T08:30:31;102138.25;;;7.87;100.00
25498;BME280;13406;53.380;7.226;2023-04-27T08:32:57;102105.44;;;7.67;100.00
25498;BME280;13406;53.380;7.226;2023-04-27T08:35:22;102158.75;;;8.14;100.00
25498;BME280;13406;53.380;7.226;2023-04-27T08:37:48;102155.25;;;8.32;100.00
25498;BME280;13406;53.380;7.226;2023-04-27T08:40:13;102103.41;;;7.79;100.00
25498;BME280;13406;53.380;7.226;2023-04-27T08:42:51;102136.69;;;8.30;100.00
25498;BME280;13406;53.380;7.226;2023-04-27T08:45:18;102029.75;;;7.59;100.00
25498;BME280;13406;53.380;7.226;2023-04-27T08:47:43;102067.38;;;7.83;100.00
25498;BME280;13406;53.380;7.226;2023-04-27T08:50:10;102024.84;;;7.72;100.00
25498;BME280;13406;53.380;7.226;2023-04-27T08:52:36;102028.75;;;7.60;100.00
25498;BME280;13406;53.380;7.226;2023-04-27T08:55:01;102097.19;;;8.24;100.00
25498;BME280;13406;53.380;7.226;2023-04-27T08:57:28;102122.03;;;8.70;100.00
25498;BME280;13406;53.380;7.226;2023-04-27T08:59:57;102131.50;;;8.82;100.00
25498;BME280;13406;53.380;7.226;2023-04-27T09:02:25;102142.75;;;8.68;100.00
25498;BME280;13406;53.380;7.226;2023-04-27T09:04:54;102074.13;;;8.23;100.00
25498;BME280;13406;53.380;7.226;2023-04-27T09:07:20;102049.91;;;7.89;100.00
25498;BME280;13406;53.380;7.226;2023-04-27T09:09:45;102066.25;;;8.04;100.00
25498;BME280;13406;53.380;7.226;2023-04-27T09:12:14;102143.34;;;8.80;100.00
25498;BME280;13406;53.380;7.226;2023-04-27T09:14:40;102145.34;;;9.04;100.00
25498;BME280;13406;53.380;7.226;2023-04-27T09:17:06;102068.56;;;8.34;100.00
25498;BME280;13406;53.380;7.226;2023-04-27T09:19:31;102061.06;;;8.20;100.00
25498;BME280;13406;53.380;7.226;2023-04-27T09:22:07;102016.56;;;7.93;100.00
25498;BME280;13406;53.380;7.226;2023-04-27T09:24:33;102147.81;;;8.53;100.00
25498;BME280;13406;53.380;7.226;2023-04-27T09:26:59;102146.09;;;8.88;100.00
25498;BME280;13406;53.380;7.226;2023-04-27T09:29:35;102076.81;;;8.41;100.00
25498;BME280;13406;53.380;7.226;2023-04-27T09:32:01;102106.63;;;8.46;100.00
25498;BME280;13406;53.380;7.226;2023-04-27T09:34:37;102071.53;;;8.31;100.00
25498;BME280;13406;53.380;7.226;2023-04-27T09:37:04;102135.84;;;8.83;100.00
25498;BME280;13406;53.380;7.226;2023-04-27T09:39:30;102158.50;;;8.71;100.00
25498;BME280;13406;53.380;7.226;2023-04-27T09:41:55;102131.75;;;8.71;100.00
25498;BME280;13406;53.380;7.226;2023-04-27T09:44:21;102152.56;;;9.03;100.00
25498;BME280;13406;53.380;7.226;2023-04-27T09:46:47;102152.56;;;9.03;100.00
25498;BME280;13406;53.380;7.226;2023-04-27T09:49:15;102028.31;;;8.54;100.00
25498;BME280;13406;53.380;7.226;2023-04-27T09:51:41;102134.41;;;9.15;100.00
25498;BME280;13406;53.380;7.226;2023-04-27T09:54:09;102011.50;;;8.26;100.00
25498;BME280;13406;53.380;7.226;2023-04-27T09:57:10;102142.69;;;9.30;100.00
25498;BME280;13406;53.380;7.226;2023-04-27T10:02:20;102007.88;;;8.53;100.00
25498;BME280;13406;53.380;7.226;2023-04-27T10:07:38;102163.31;;;9.12;100.00
25498;BME280;13406;53.380;7.226;2023-04-27T10:10:05;102149.69;;;9.05;100.00
25498;BME280;13406;53.380;7.226;2023-04-27T10:12:35;102149.03;;;9.03;100.00
25498;BME280;13406;53.380;7.226;2023-04-27T10:15:14;102085.81;;;8.58;100.00
25498;BME280;13406;53.380;7.226;2023-04-27T10:17:50;102152.56;;;9.03;100.00
25498;BME280;13406;53.380;7.226;2023-04-27T10:20:30;102149.00;;;9.21;100.00
25498;BME280;13406;53.380;7.226;2023-04-27T10:22:56;102083.34;;;8.82;100.00
25498;BME280;13406;53.380;7.226;2023-04-27T10:25:28;102093.88;;;8.84;100.00
25498;BME280;13406;53.380;7.226;2023-04-27T10:27:58;102150.47;;;9.15;100.00
25498;BME280;13406;53.380;7.226;2023-04-27T10:30:30;102099.34;;;9.00;100.00
25498;BME280;13406;53.380;7.226;2023-04-27T10:32:57;102136.81;;;9.26;100.00
25498;BME280;13406;53.380;7.226;2023-04-27T10:35:37;102149.69;;;9.23;100.00
25498;BME280;13406;53.380;7.226;2023-04-27T10:38:08;102121.91;;;8.98;100.00
25498;BME280;13406;53.380;7.226;2023-04-27T10:40:35;102052.78;;;8.67;100.00
25498;BME280;13406;53.380;7.226;2023-04-27T10:43:11;102126.25;;;9.25;100.00
25498;BME280;13406;53.380;7.226;2023-04-27T10:45:37;102145.97;;;9.50;100.00
25498;BME280;13406;53.380;7.226;2023-04-27T10:48:03;102137.00;;;9.33;100.00
25498;BME280;13406;53.380;7.226;2023-04-27T10:50:29;102158.72;;;9.56;100.00
25498;BME280;13406;53.380;7.226;2023-04-27T10:53:02;102144.50;;;9.56;100.00
25498;BME280;13406;53.380;7.226;2023-04-27T10:55:28;102119.94;;;9.34;100.00
25498;BME280;13406;53.380;7.226;2023-04-27T10:57:55;102108.88;;;9.29;100.00
25498;BME280;13406;53.380;7.226;2023-04-27T11:00:27;102014.75;;;8.55;100.00
25498;BME280;13406;53.380;7.226;2023-04-27T11:02:54;102030.75;;;8.73;100.00
25498;BME280;13406;53.380;7.226;2023-04-27T11:05:25;102127.72;;;9.19;100.00
25498;BME280;13406;53.380;7.226;2023-04-27T11:08:16;102119.34;;;9.14;100.00
25498;BME280;13406;53.380;7.226;2023-04-27T11:10:47;102000.13;;;8.42;100.00
25498;BME280;13406;53.380;7.226;2023-04-27T11:13:20;102142.63;;;9.22;100.00
25498;BME280;13406;53.380;7.226;2023-04-27T11:15:57;102043.50;;;8.53;100.00
25498;BME280;13406;53.380;7.226;2023-04-27T11:18:24;102149.81;;;9.21;100.00
25498;BME280;13406;53.380;7.226;2023-04-27T11:20:53;102144.31;;;9.23;100.00
25498;BME280;13406;53.380;7.226;2023-04-27T11:23:29;102098.59;;;8.90;100.00
25498;BME280;13406;53.380;7.226;2023-04-27T11:26:08;102141.09;;;9.19;100.00
25498;BME280;13406;53.380;7.226;2023-04-27T11:28:33;102148.88;;;9.31;100.00
25498;BME280;13406;53.380;7.226;2023-04-27T11:30:59;102144.34;;;9.31;100.00
25498;BME280;13406;53.380;7.226;2023-04-27T11:33:26;102089.41;;;8.93;100.00
25498;BME280;13406;53.380;7.226;2023-04-27T11:35:51;102088.91;;;8.89;100.00
25498;BME280;13406;53.380;7.226;2023-04-27T11:38:18;102029.84;;;8.56;100.00
25498;BME280;13406;53.380;7.226;2023-04-27T11:40:45;102043.16;;;8.74;100.00
25498;BME280;13406;53.380;7.226;2023-04-27T11:43:12;102026.16;;;8.57;100.00
25498;BME280;13406;53.380;7.226;2023-04-27T11:45:42;102011.56;;;8.52;100.00
25498;BME280;13406;53.380;7.226;2023-04-27T11:48:15;102020.81;;;8.57;100.00
25498;BME280;13406;53.380;7.226;2023-04-27T11:50:50;102152.94;;;9.35;100.00
25498;BME280;13406;53.380;7.226;2023-04-27T11:53:27;102076.53;;;8.88;100.00
25498;BME280;13406;53.380;7.226;2023-04-27T11:55:53;101971.63;;;8.32;100.00
25498;BME280;13406;53.380;7.226;2023-04-27T11:58:19;102043.56;;;8.62;100.00
25498;BME280;13406;53.380;7.226;2023-04-27T12:00:45;102155.38;;;9.28;100.00
25498;BME280;13406;53.380;7.226;2023-04-27T12:03:11;102153.81;;;9.43;100.00
25498;BME280;13406;53.380;7.226;2023-04-27T12:05:47;102161.56;;;9.28;100.00
25498;BME280;13406;53.380;7.226;2023-04-27T12:08:15;102128.34;;;9.13;100.00
25498;BME280;13406;53.380;7.226;2023-04-27T12:10:40;101992.28;;;8.40;100.00
25498;BME280;13406;53.380;7.226;2023-04-27T12:13:06;102113.34;;;9.20;100.00
25498;BME280;13406;53.380;7.226;2023-04-27T12:15:32;102073.88;;;8.96;100.00
25498;BME280;13406;53.380;7.226;2023-04-27T12:17:58;102107.09;;;9.12;100.00
25498;BME280;13406;53.380;7.226;2023-04-27T12:20:23;102148.25;;;9.71;100.00
25498;BME280;13406;53.380;7.226;2023-04-27T12:22:49;102157.78;;;9.73;100.00
25498;BME280;13406;53.380;7.226;2023-04-27T12:25:14;102092.91;;;9.54;100.00
25498;BME280;13406;53.380;7.226;2023-04-27T12:27:41;102006.81;;;9.32;100.00
25498;BME280;13406;53.380;7.226;2023-04-27T12:30:08;102030.97;;;9.57;100.00
25498;BME280;13406;53.380;7.226;2023-04-27T12:32:33;102089.03;;;9.90;100.00
25498;BME280;13406;53.380;7.226;2023-04-27T12:34:59;102088.25;;;9.56;100.00
25498;BME280;13406;53.380;7.226;2023-04-27T12:37:24;102165.25;;;9.96;100.00
25498;BME280;13406;53.380;7.226;2023-04-27T12:39:50;102152.38;;;10.00;100.00
25498;BME280;13406;53.380;7.226;2023-04-27T12:42:15;102073.59;;;9.08;100.00
25498;BME280;13406;53.380;7.226;2023-04-27T12:44:43;102033.09;;;9.02;100.00
25498;BME280;13406;53.380;7.226;2023-04-27T12:47:09;102135.19;;;9.76;100.00
25498;BME280;13406;53.380;7.226;2023-04-27T12:49:34;102128.66;;;9.70;100.00
25498;BME280;13406;53.380;7.226;2023-04-27T12:52:00;102126.56;;;9.56;100.00
25498;BME280;13406;53.380;7.226;2023-04-27T12:54:26;102154.84;;;9.85;100.00